RPA4684 KRDU-KDCA
Flight info
| Callsign | RPA4684 |
|---|---|
| Flight time | 0h 39m |
| Altitude | 31000 |
| Route | BEXGO5 BOUSY WAVES CAPSS4 |
| Aircraft | E75L/M-SDE3GILORVW/S |
Departure
| Time | 2026-04-24 20:34 |
|---|---|
| Airport | Raleigh-Durham International Airport (KRDU) |
Arrival
| Time | 2026-04-24 21:13 |
|---|---|
| Airport | Ronald Reagan Washington National Airport (KDCA) |
| Time | Latitude | Longitude | Altitude | Speed | Heading |
|---|---|---|---|---|---|
| 2026-04-24 19:57 | 35.87903 | -78.79082 | 419 ft | 0 kts | 315° |
| 2026-04-24 20:26 | 35.87888 | -78.79058 | 412 ft | 4 kts | 302° |
| 2026-04-24 20:26 | 35.87880 | -78.79042 | 412 ft | 3 kts | 34° |
| 2026-04-24 20:26 | 35.87875 | -78.79046 | 412 ft | 0 kts | 45° |
| 2026-04-24 20:29 | 35.87882 | -78.79039 | 412 ft | 3 kts | 45° |
| 2026-04-24 20:29 | 35.87909 | -78.79005 | 420 ft | 8 kts | 45° |
| 2026-04-24 20:30 | 35.87965 | -78.78959 | 422 ft | 11 kts | 24° |
| 2026-04-24 20:30 | 35.88039 | -78.79001 | 420 ft | 14 kts | 315° |
| 2026-04-24 20:30 | 35.88122 | -78.79091 | 424 ft | 16 kts | 321° |
| 2026-04-24 20:30 | 35.88205 | -78.79068 | 420 ft | 14 kts | 44° |
| 2026-04-24 20:31 | 35.88286 | -78.78969 | 418 ft | 18 kts | 45° |
| 2026-04-24 20:31 | 35.88385 | -78.78847 | 422 ft | 22 kts | 45° |
| 2026-04-24 20:31 | 35.88499 | -78.78706 | 420 ft | 24 kts | 45° |
| 2026-04-24 20:31 | 35.88623 | -78.78552 | 415 ft | 26 kts | 45° |
| 2026-04-24 20:32 | 35.88756 | -78.78387 | 425 ft | 27 kts | 45° |
| 2026-04-24 20:32 | 35.88887 | -78.78225 | 420 ft | 27 kts | 45° |
| 2026-04-24 20:32 | 35.89024 | -78.78056 | 421 ft | 26 kts | 45° |
| 2026-04-24 20:32 | 35.89147 | -78.77903 | 424 ft | 25 kts | 45° |
| 2026-04-24 20:33 | 35.89234 | -78.77811 | 420 ft | 12 kts | 4° |
| 2026-04-24 20:33 | 35.89294 | -78.77879 | 421 ft | 9 kts | 298° |
| 2026-04-24 20:33 | 35.89253 | -78.77960 | 423 ft | 31 kts | 225° |
| 2026-04-24 20:33 | 35.88876 | -78.78427 | 424 ft | 120 kts | 225° |
| 2026-04-24 20:34 | 35.88135 | -78.79350 | 781 ft | 168 kts | 225° |
| 2026-04-24 20:34 | 35.87297 | -78.80363 | 2074 ft | 167 kts | 229° |
| 2026-04-24 20:34 | 35.86701 | -78.81575 | 3236 ft | 170 kts | 253° |
| 2026-04-24 20:34 | 35.86652 | -78.83149 | 3867 ft | 202 kts | 282° |
| 2026-04-24 20:35 | 35.87410 | -78.84717 | 4729 ft | 228 kts | 317° |
| 2026-04-24 20:35 | 35.88863 | -78.85527 | 6014 ft | 231 kts | 349° |
| 2026-04-24 20:35 | 35.90451 | -78.85539 | 7338 ft | 231 kts | 5° |
| 2026-04-24 20:35 | 35.92025 | -78.85026 | 8322 ft | 239 kts | 11° |
| 2026-04-24 20:36 | 35.93746 | -78.84618 | 8877 ft | 265 kts | 9° |
| 2026-04-24 20:36 | 35.95559 | -78.83826 | 9463 ft | 290 kts | 27° |
| 2026-04-24 20:36 | 35.97245 | -78.82346 | 10272 ft | 304 kts | 39° |
| 2026-04-24 20:36 | 35.98829 | -78.80473 | 10916 ft | 324 kts | 45° |
| 2026-04-24 20:37 | 36.00403 | -78.78425 | 11761 ft | 332 kts | 44° |
| 2026-04-24 20:37 | 36.02026 | -78.76383 | 12828 ft | 335 kts | 43° |
| 2026-04-24 20:37 | 36.03693 | -78.74348 | 13901 ft | 338 kts | 42° |
| 2026-04-24 20:37 | 36.05386 | -78.72302 | 14903 ft | 343 kts | 43° |
| 2026-04-24 20:38 | 36.07118 | -78.70246 | 15929 ft | 347 kts | 40° |
| 2026-04-24 20:38 | 36.08300 | -78.68894 | 16574 ft | 351 kts | 42° |
| 2026-04-24 20:38 | 36.10022 | -78.66706 | 17468 ft | 359 kts | 44° |
| 2026-04-24 20:38 | 36.11759 | -78.64392 | 18359 ft | 365 kts | 45° |
| 2026-04-24 20:39 | 36.13484 | -78.62065 | 19195 ft | 369 kts | 45° |
| 2026-04-24 20:39 | 36.15190 | -78.59727 | 20042 ft | 373 kts | 45° |
| 2026-04-24 20:39 | 36.16930 | -78.57327 | 20893 ft | 377 kts | 45° |
| 2026-04-24 20:39 | 36.18682 | -78.54835 | 21753 ft | 381 kts | 46° |
| 2026-04-24 20:40 | 36.20401 | -78.52317 | 22531 ft | 385 kts | 46° |
| 2026-04-24 20:40 | 36.22092 | -78.49769 | 23241 ft | 390 kts | 48° |
| 2026-04-24 20:40 | 36.23789 | -78.47121 | 23851 ft | 395 kts | 48° |
| 2026-04-24 20:40 | 36.25480 | -78.44410 | 24431 ft | 399 kts | 49° |
| 2026-04-24 20:41 | 36.27189 | -78.41670 | 24995 ft | 403 kts | 46° |
| 2026-04-24 20:41 | 36.29228 | -78.39307 | 25564 ft | 402 kts | 34° |
| 2026-04-24 20:41 | 36.31472 | -78.37224 | 26147 ft | 405 kts | 32° |
| 2026-04-24 20:41 | 36.33750 | -78.35143 | 26711 ft | 409 kts | 32° |
| 2026-04-24 20:42 | 36.36052 | -78.33033 | 27259 ft | 413 kts | 32° |
| 2026-04-24 20:42 | 36.38373 | -78.30904 | 27803 ft | 417 kts | 32° |
| 2026-04-24 20:42 | 36.40715 | -78.28755 | 28317 ft | 421 kts | 32° |
| 2026-04-24 20:42 | 36.43080 | -78.26582 | 28847 ft | 424 kts | 32° |
| 2026-04-24 20:43 | 36.45464 | -78.24393 | 29342 ft | 428 kts | 32° |
| 2026-04-24 20:43 | 36.47865 | -78.22186 | 29814 ft | 431 kts | 32° |
| 2026-04-24 20:43 | 36.50285 | -78.19962 | 30239 ft | 434 kts | 32° |
| 2026-04-24 20:43 | 36.52705 | -78.17701 | 30655 ft | 436 kts | 33° |
| 2026-04-24 20:44 | 36.55125 | -78.15412 | 30955 ft | 441 kts | 33° |
| 2026-04-24 20:44 | 36.57607 | -78.13068 | 30976 ft | 454 kts | 34° |
| 2026-04-24 20:44 | 36.62728 | -78.08227 | 30990 ft | 468 kts | 34° |
| 2026-04-24 20:45 | 36.67896 | -78.03332 | 30899 ft | 466 kts | 34° |
| 2026-04-24 20:45 | 36.73063 | -77.98433 | 30898 ft | 467 kts | 34° |
| 2026-04-24 20:46 | 36.78236 | -77.93519 | 30881 ft | 467 kts | 34° |
| 2026-04-24 20:46 | 36.83617 | -77.89081 | 30901 ft | 462 kts | 23° |
| 2026-04-24 20:47 | 36.89426 | -77.85695 | 30836 ft | 459 kts | 22° |
| 2026-04-24 20:47 | 36.95219 | -77.82334 | 30841 ft | 459 kts | 22° |
| 2026-04-24 20:48 | 37.01007 | -77.78959 | 30849 ft | 459 kts | 22° |
| 2026-04-24 20:48 | 37.06795 | -77.75573 | 30842 ft | 459 kts | 22° |
| 2026-04-24 20:49 | 37.12566 | -77.72191 | 30839 ft | 456 kts | 22° |
| 2026-04-24 20:49 | 37.18282 | -77.68833 | 30845 ft | 457 kts | 22° |
| 2026-04-24 20:50 | 37.24076 | -77.65425 | 30845 ft | 457 kts | 22° |
| 2026-04-24 20:50 | 37.29822 | -77.62038 | 30849 ft | 451 kts | 22° |
| 2026-04-24 20:51 | 37.32591 | -77.60399 | 30803 ft | 428 kts | 22° |
| 2026-04-24 20:51 | 37.35186 | -77.58864 | 30804 ft | 408 kts | 21° |
| 2026-04-24 20:51 | 37.40249 | -77.55873 | 30856 ft | 401 kts | 21° |
| 2026-04-24 20:52 | 37.45307 | -77.52882 | 30859 ft | 402 kts | 21° |
| 2026-04-24 20:52 | 37.50362 | -77.49886 | 30860 ft | 402 kts | 21° |
| 2026-04-24 20:53 | 37.55406 | -77.46890 | 30856 ft | 399 kts | 21° |
| 2026-04-24 20:53 | 37.60535 | -77.44306 | 30869 ft | 395 kts | 12° |
| 2026-04-24 20:54 | 37.65872 | -77.42633 | 30868 ft | 395 kts | 11° |
| 2026-04-24 20:54 | 37.71209 | -77.40966 | 30845 ft | 395 kts | 11° |
| 2026-04-24 20:55 | 37.76540 | -77.39287 | 30856 ft | 395 kts | 11° |
| 2026-04-24 20:55 | 37.81874 | -77.37633 | 30852 ft | 395 kts | 10° |
| 2026-04-24 20:56 | 37.87210 | -77.35986 | 30847 ft | 395 kts | 11° |
| 2026-04-24 20:56 | 37.92546 | -77.34338 | 30846 ft | 395 kts | 10° |
| 2026-04-24 20:57 | 37.97881 | -77.32699 | 30839 ft | 394 kts | 10° |
| 2026-04-24 20:57 | 38.03203 | -77.31060 | 30834 ft | 393 kts | 10° |
| 2026-04-24 20:58 | 38.08522 | -77.29418 | 30825 ft | 393 kts | 10° |
| 2026-04-24 20:58 | 38.13840 | -77.27744 | 30694 ft | 396 kts | 11° |
| 2026-04-24 20:59 | 38.16542 | -77.26897 | 30005 ft | 401 kts | 11° |
| 2026-04-24 20:59 | 38.19234 | -77.26047 | 29048 ft | 395 kts | 11° |
| 2026-04-24 20:59 | 38.21874 | -77.25176 | 28100 ft | 391 kts | 13° |
| 2026-04-24 20:59 | 38.24491 | -77.24163 | 27187 ft | 394 kts | 13° |
| 2026-04-24 21:00 | 38.27102 | -77.23161 | 26302 ft | 390 kts | 13° |
| 2026-04-24 21:00 | 38.29692 | -77.22176 | 25459 ft | 387 kts | 13° |
| 2026-04-24 21:00 | 38.32258 | -77.21195 | 24638 ft | 384 kts | 13° |
| 2026-04-24 21:00 | 38.34805 | -77.20224 | 23832 ft | 380 kts | 13° |
| 2026-04-24 21:01 | 38.37330 | -77.19261 | 22968 ft | 376 kts | 13° |
| 2026-04-24 21:01 | 38.39821 | -77.18299 | 22045 ft | 372 kts | 13° |
| 2026-04-24 21:01 | 38.42284 | -77.17346 | 21154 ft | 367 kts | 13° |
| 2026-04-24 21:01 | 38.44712 | -77.16405 | 20279 ft | 362 kts | 13° |
| 2026-04-24 21:02 | 38.47114 | -77.15476 | 19430 ft | 358 kts | 13° |
| 2026-04-24 21:02 | 38.49491 | -77.14556 | 18603 ft | 355 kts | 13° |
| 2026-04-24 21:02 | 38.51846 | -77.13645 | 17746 ft | 352 kts | 13° |
| 2026-04-24 21:02 | 38.54161 | -77.12747 | 16824 ft | 341 kts | 13° |
| 2026-04-24 21:03 | 38.56388 | -77.11881 | 15928 ft | 329 kts | 13° |
| 2026-04-24 21:03 | 38.58543 | -77.11046 | 15058 ft | 319 kts | 13° |
| 2026-04-24 21:03 | 38.60640 | -77.10240 | 14211 ft | 312 kts | 12° |
| 2026-04-24 21:03 | 38.62698 | -77.09449 | 13356 ft | 307 kts | 12° |
| 2026-04-24 21:04 | 38.64727 | -77.08667 | 12449 ft | 302 kts | 12° |
| 2026-04-24 21:04 | 38.66715 | -77.07901 | 11571 ft | 296 kts | 12° |
| 2026-04-24 21:04 | 38.68672 | -77.07144 | 10680 ft | 292 kts | 12° |
| 2026-04-24 21:04 | 38.70628 | -77.06681 | 9838 ft | 282 kts | 358° |
| 2026-04-24 21:05 | 38.72566 | -77.06590 | 8946 ft | 277 kts | 357° |
| 2026-04-24 21:05 | 38.74489 | -77.06472 | 8065 ft | 281 kts | 359° |
| 2026-04-24 21:05 | 38.76426 | -77.06541 | 7660 ft | 274 kts | 343° |
| 2026-04-24 21:05 | 38.78105 | -77.07560 | 7255 ft | 265 kts | 325° |
| 2026-04-24 21:06 | 38.79646 | -77.08849 | 6850 ft | 264 kts | 324° |
| 2026-04-24 21:06 | 38.81188 | -77.10133 | 6443 ft | 264 kts | 325° |
| 2026-04-24 21:06 | 38.82742 | -77.11400 | 6025 ft | 264 kts | 325° |
| 2026-04-24 21:06 | 38.84231 | -77.12760 | 5590 ft | 260 kts | 313° |
| 2026-04-24 21:07 | 38.85046 | -77.14769 | 5160 ft | 256 kts | 279° |
| 2026-04-24 21:07 | 38.84806 | -77.17003 | 4743 ft | 258 kts | 245° |
| 2026-04-24 21:07 | 38.83590 | -77.18665 | 4298 ft | 261 kts | 210° |
| 2026-04-24 21:07 | 38.81831 | -77.19141 | 3856 ft | 263 kts | 175° |
| 2026-04-24 21:08 | 38.80162 | -77.18248 | 3441 ft | 264 kts | 140° |
| 2026-04-24 21:08 | 38.78907 | -77.16547 | 3040 ft | 263 kts | 129° |
| 2026-04-24 21:08 | 38.77776 | -77.14709 | 2632 ft | 262 kts | 127° |
| 2026-04-24 21:08 | 38.76674 | -77.12854 | 2210 ft | 262 kts | 126° |
| 2026-04-24 21:09 | 38.75600 | -77.11015 | 2054 ft | 247 kts | 122° |
| 2026-04-24 21:09 | 38.74813 | -77.09234 | 2442 ft | 210 kts | 121° |
| 2026-04-24 21:09 | 38.73969 | -77.07900 | 3510 ft | 183 kts | 131° |
| 2026-04-24 21:09 | 38.73340 | -77.06574 | 4723 ft | 166 kts | 109° |
| 2026-04-24 21:10 | 38.73379 | -77.05077 | 4616 ft | 179 kts | 66° |
| 2026-04-24 21:10 | 38.74164 | -77.03721 | 3865 ft | 197 kts | 40° |
| 2026-04-24 21:10 | 38.75355 | -77.02836 | 3299 ft | 196 kts | 18° |
| 2026-04-24 21:10 | 38.76653 | -77.02684 | 2937 ft | 187 kts | 351° |
| 2026-04-24 21:11 | 38.77910 | -77.03034 | 2423 ft | 180 kts | 350° |
| 2026-04-24 21:11 | 38.79085 | -77.03285 | 1848 ft | 168 kts | 358° |
| 2026-04-24 21:11 | 38.80228 | -77.03394 | 1273 ft | 160 kts | 1° |
| 2026-04-24 21:11 | 38.81304 | -77.03418 | 861 ft | 148 kts | 2° |
| 2026-04-24 21:12 | 38.82325 | -77.03497 | 504 ft | 146 kts | 356° |
| 2026-04-24 21:12 | 38.82990 | -77.03575 | 334 ft | 145 kts | 357° |
| 2026-04-24 21:12 | 38.84304 | -77.03697 | 42 ft | 138 kts | 0° |
| 2026-04-24 21:12 | 38.85157 | -77.03772 | 22 ft | 108 kts | 356° |
| 2026-04-24 21:13 | 38.85767 | -77.03836 | 22 ft | 70 kts | 355° |
| 2026-04-24 21:13 | 38.86088 | -77.03876 | 21 ft | 11 kts | 320° |
| 2026-04-24 21:13 | 38.86070 | -77.03937 | 21 ft | 10 kts | 194° |
| 2026-04-24 21:13 | 38.85993 | -77.03962 | 22 ft | 13 kts | 194° |
| 2026-04-24 21:14 | 38.85921 | -77.03985 | 22 ft | 0 kts | 194° |
| 2026-04-24 21:14 | 38.85912 | -77.03988 | 22 ft | 5 kts | 189° |
| 2026-04-24 21:14 | 38.85839 | -77.03987 | 24 ft | 16 kts | 175° |
| 2026-04-24 21:14 | 38.85713 | -77.03972 | 24 ft | 9 kts | 188° |
| 2026-04-24 21:15 | 38.85689 | -77.04025 | 23 ft | 9 kts | 262° |
| 2026-04-24 21:15 | 38.85719 | -77.04094 | 22 ft | 7 kts | 319° |
| 2026-04-24 21:15 | 38.85766 | -77.04142 | 22 ft | 10 kts | 322° |
| 2026-04-24 21:15 | 38.85821 | -77.04196 | 22 ft | 10 kts | 323° |
| 2026-04-24 21:16 | 38.85856 | -77.04241 | 22 ft | 4 kts | 271° |
| 2026-04-24 21:16 | 38.85848 | -77.04265 | 22 ft | 3 kts | 239° |
| 2026-04-24 21:16 | 38.85837 | -77.04285 | 23 ft | 2 kts | 234° |
| 2026-04-24 21:16 | 38.85830 | -77.04299 | 22 ft | 0 kts | 235° |